createdAt,value
2018-01-21T00:01:40.360Z,100034.44
2018-01-21T00:04:11.196Z,100037.03
2018-01-21T00:06:41.468Z,100051.76
2018-01-21T00:09:12.947Z,100057.89
2018-01-21T00:11:43.618Z,100075.53
2018-01-21T00:14:13.995Z,100075.09
2018-01-21T00:16:45.496Z,100083.70
2018-01-21T00:19:16.515Z,100089.94
2018-01-21T00:21:46.641Z,100088.31
2018-01-21T00:24:18.116Z,100090.58
2018-01-21T00:26:48.576Z,100087.77
2018-01-21T00:29:20.604Z,100095.33
2018-01-21T00:31:52.425Z,100107.64
2018-01-21T00:34:23.737Z,100102.16
2018-01-21T00:36:55.627Z,100107.22
2018-01-21T00:39:27.949Z,100111.49
2018-01-21T00:41:58.450Z,100117.25
2018-01-21T00:44:29.066Z,100123.23
2018-01-21T00:46:59.580Z,100132.65
2018-01-21T00:49:30.087Z,100134.70
2018-01-21T00:52:01.081Z,100139.45
2018-01-21T00:54:32.916Z,100144.62
2018-01-21T00:57:03.588Z,100151.16
2018-01-21T00:59:34.004Z,100159.42
2018-01-21T01:02:05.462Z,100163.95
2018-01-21T01:04:37.046Z,100175.77
2018-01-21T01:07:13.058Z,100188.48
2018-01-21T01:09:46.664Z,100184.94
2018-01-21T01:12:17.657Z,100199.30
2018-01-21T01:14:48.823Z,100200.45
2018-01-21T01:17:19.490Z,100205.23
2018-01-21T01:19:50.338Z,100213.83
2018-01-21T01:22:23.445Z,100218.22
2018-01-21T01:24:53.920Z,100224.32
2018-01-21T01:27:24.591Z,100225.33
2018-01-21T01:29:55.168Z,100228.28
2018-01-21T01:32:29.601Z,100240.07
2018-01-21T01:35:00.079Z,100248.91
2018-01-21T01:37:30.388Z,100255.27
2018-01-21T01:40:01.159Z,100252.67
2018-01-21T01:42:31.973Z,100263.86
2018-01-21T01:45:05.365Z,100265.19
2018-01-21T01:47:35.991Z,100265.64
2018-01-21T01:50:06.227Z,100283.91
2018-01-21T01:52:36.546Z,100291.38
2018-01-21T01:55:06.836Z,100291.41
2018-01-21T01:57:37.291Z,100293.38
2018-01-21T02:00:08.569Z,100300.44
2018-01-21T02:02:39.612Z,100301.31
2018-01-21T02:05:09.991Z,100310.97
2018-01-21T02:07:40.279Z,100313.55
2018-01-21T02:10:10.628Z,100321.10
2018-01-21T02:12:40.875Z,100320.80
2018-01-21T02:15:14.132Z,100325.45
2018-01-21T02:17:44.350Z,100335.70
2018-01-21T02:20:20.293Z,100328.68
2018-01-21T02:22:50.906Z,100339.28
2018-01-21T02:25:24.656Z,100344.91
2018-01-21T02:27:55.135Z,100347.86
2018-01-21T02:30:27.146Z,100354.75
2018-01-21T02:32:57.702Z,100359.60
2018-01-21T02:35:28.141Z,100369.81
2018-01-21T02:37:58.828Z,100364.11
2018-01-21T02:40:32.054Z,100366.89
2018-01-21T02:43:02.708Z,100356.64
2018-01-21T02:45:33.473Z,100366.95
2018-01-21T02:48:04.288Z,100378.98
2018-01-21T02:50:35.179Z,100383.36
2018-01-21T02:53:05.614Z,100391.00
2018-01-21T02:55:36.372Z,100397.78
2018-01-21T02:58:06.680Z,100400.79
2018-01-21T03:00:37.015Z,100410.25
2018-01-21T03:03:08.129Z,100416.97
2018-01-21T03:05:38.923Z,100425.23
2018-01-21T03:08:10.233Z,100422.97
2018-01-21T03:10:40.622Z,100431.95
2018-01-21T03:13:11.037Z,100436.98
2018-01-21T03:15:42.609Z,100437.11
2018-01-21T03:18:13.224Z,100447.63
2018-01-21T03:20:43.378Z,100449.16
2018-01-21T03:23:13.889Z,100452.07
2018-01-21T03:25:44.945Z,100424.69
2018-01-21T03:28:15.284Z,100476.64
2018-01-21T03:30:45.596Z,100469.67
2018-01-21T03:33:17.997Z,100476.08
2018-01-21T03:35:48.240Z,100482.35
2018-01-21T03:38:18.724Z,100488.86
2018-01-21T03:40:49.003Z,100490.79
2018-01-21T03:43:19.338Z,100497.29
2018-01-21T03:45:50.642Z,100493.19
2018-01-21T03:48:31.928Z,100503.70
2018-01-21T03:51:02.571Z,100504.41
2018-01-21T03:53:33.561Z,100503.80
2018-01-21T03:56:04.249Z,100517.04
2018-01-21T03:58:35.050Z,100516.61
2018-01-21T04:01:05.733Z,100524.38
2018-01-21T04:03:36.889Z,100529.95
2018-01-21T04:06:07.227Z,100532.17
2018-01-21T04:08:37.707Z,100536.13
2018-01-21T04:11:08.356Z,100539.09
2018-01-21T04:13:38.691Z,100539.57
2018-01-21T04:16:09.658Z,100547.48
2018-01-21T04:18:40.135Z,100548.81
2018-01-21T04:21:10.741Z,100550.78
2018-01-21T04:23:41.180Z,100557.95
2018-01-21T04:26:11.694Z,100563.08
2018-01-21T04:28:42.013Z,100565.59
2018-01-21T04:31:12.492Z,100577.93
2018-01-21T04:33:42.781Z,100585.89
2018-01-21T04:36:13.716Z,100579.29
2018-01-21T04:38:44.853Z,100589.63
2018-01-21T04:41:15.011Z,100587.75
2018-01-21T04:43:45.438Z,100595.27
2018-01-21T04:46:16.732Z,100602.38
2018-01-21T04:48:46.921Z,100608.35
2018-01-21T04:51:17.242Z,100611.72
2018-01-21T04:53:48.525Z,100616.16
2018-01-21T04:56:28.596Z,100616.94
2018-01-21T04:59:00.379Z,100630.14
2018-01-21T05:01:31.829Z,100637.23
2018-01-21T05:04:02.747Z,100636.52
2018-01-21T05:06:33.006Z,100636.69
2018-01-21T05:09:04.118Z,100644.18
2018-01-21T05:11:35.750Z,100645.86
2018-01-21T05:14:08.445Z,100643.59
2018-01-21T05:19:13.184Z,100646.55
2018-01-21T05:21:45.045Z,100650.94
2018-01-21T05:24:17.851Z,100659.62
2018-01-21T05:26:50.239Z,100657.27
2018-01-21T05:29:22.295Z,100663.63
2018-01-21T05:31:53.881Z,100659.11
2018-01-21T05:34:24.335Z,100671.48
2018-01-21T05:36:55.952Z,100670.64
2018-01-21T05:39:28.200Z,100673.20
2018-01-21T05:41:58.382Z,100675.84
2018-01-21T05:44:28.588Z,100679.52
2018-01-21T05:46:59.727Z,100684.45
2018-01-21T05:49:30.063Z,100691.16
2018-01-21T05:52:00.616Z,100696.05
2018-01-21T05:54:31.642Z,100701.84
2018-01-21T05:57:02.160Z,100703.89
2018-01-21T05:59:33.366Z,100698.71
2018-01-21T06:02:04.182Z,100709.72
2018-01-21T06:04:34.679Z,100715.43
2018-01-21T06:07:06.583Z,100717.91
2018-01-21T06:09:37.248Z,100726.62
2018-01-21T06:12:07.451Z,100729.47
2018-01-21T06:14:38.177Z,100744.52
2018-01-21T06:17:08.922Z,100758.38
2018-01-21T06:19:39.304Z,100759.73
2018-01-21T06:22:09.992Z,100761.81
2018-01-21T06:24:40.251Z,100770.80
2018-01-21T06:27:10.431Z,100772.37
2018-01-21T06:29:40.559Z,100789.14
2018-01-21T06:32:11.629Z,100785.05
2018-01-21T06:34:42.285Z,100787.81
2018-01-21T06:37:12.843Z,100795.98
2018-01-21T06:39:44.038Z,100796.28
2018-01-21T06:42:14.279Z,100802.36
2018-01-21T06:44:45.174Z,100807.94
2018-01-21T06:47:15.729Z,100812.20
2018-01-21T06:49:46.230Z,100818.53
2018-01-21T06:52:20.142Z,100822.27
2018-01-21T06:54:50.975Z,100825.26
2018-01-21T06:57:21.349Z,100831.80
2018-01-21T06:59:51.704Z,100839.67
2018-01-21T07:02:22.694Z,100838.39
2018-01-21T07:04:52.857Z,100845.55
2018-01-21T07:07:30.236Z,100846.69
2018-01-21T07:10:00.970Z,100852.95
2018-01-21T07:12:31.913Z,100863.80
2018-01-21T07:15:04.795Z,100863.72
2018-01-21T07:17:35.484Z,100862.11
2018-01-21T07:20:06.022Z,100869.59
2018-01-21T07:22:36.336Z,100880.07
2018-01-21T07:25:06.704Z,100889.86
2018-01-21T07:27:37.033Z,100893.47
2018-01-21T07:30:09.086Z,100890.83
2018-01-21T07:32:39.577Z,100900.41
2018-01-21T07:35:09.933Z,100900.11
2018-01-21T07:37:40.905Z,100907.05
2018-01-21T07:40:11.188Z,100905.13
2018-01-21T07:42:41.568Z,100912.58
2018-01-21T07:45:14.270Z,100910.48
2018-01-21T07:47:44.563Z,100916.02
2018-01-21T07:50:15.739Z,100919.03
2018-01-21T07:52:46.348Z,100924.53
2018-01-21T07:55:16.807Z,100931.82
2018-01-21T07:57:47.116Z,100940.30
2018-01-21T08:00:19.576Z,100905.70
2018-01-21T08:02:50.000Z,100950.83
2018-01-21T08:05:20.352Z,100957.64
2018-01-21T08:07:50.627Z,100965.97
2018-01-21T08:10:21.356Z,100971.59
2018-01-21T08:12:52.507Z,100976.59
2018-01-21T08:15:23.124Z,100984.39
2018-01-21T08:17:53.717Z,100990.36
2018-01-21T08:20:24.613Z,101000.08
2018-01-21T08:22:57.159Z,100998.21
2018-01-21T08:25:27.570Z,100997.41
2018-01-21T08:27:58.197Z,100999.58
2018-01-21T08:30:28.889Z,101004.03
2018-01-21T08:32:59.997Z,101010.97
2018-01-21T08:37:42.220Z,101010.34
2018-01-21T08:42:21.779Z,101009.47
2018-01-21T08:44:52.386Z,101016.81
2018-01-21T08:47:22.886Z,101023.30
2018-01-21T08:49:53.473Z,101018.17
2018-01-21T08:52:23.943Z,101028.73
2018-01-21T08:54:55.763Z,101031.17
2018-01-21T08:57:27.064Z,101033.81
2018-01-21T08:59:57.460Z,101037.33
2018-01-21T09:02:28.107Z,101027.84
2018-01-21T09:04:58.718Z,101035.66
2018-01-21T09:07:29.529Z,101029.66
2018-01-21T09:10:00.093Z,101034.34
2018-01-21T09:12:30.300Z,101043.11
2018-01-21T09:15:00.587Z,101042.34
2018-01-21T09:17:34.537Z,101046.02
2018-01-21T09:20:05.083Z,101050.58
2018-01-21T09:22:35.375Z,101059.73
2018-01-21T09:25:05.537Z,101043.97
2018-01-21T09:27:36.225Z,101062.38
2018-01-21T09:30:08.214Z,101068.27
2018-01-21T09:32:43.911Z,101068.13
2018-01-21T09:35:14.153Z,101064.97
2018-01-21T09:37:44.641Z,101067.23
2018-01-21T09:40:15.233Z,101080.82
2018-01-21T09:42:49.440Z,101084.69
2018-01-21T09:45:26.228Z,101090.91
2018-01-21T09:47:59.402Z,101086.98
2018-01-21T09:50:30.362Z,101102.85
2018-01-21T09:53:00.817Z,101103.24
2018-01-21T09:55:38.110Z,101096.61
2018-01-21T09:58:12.334Z,101075.54
2018-01-21T10:00:43.657Z,101103.20
2018-01-21T10:03:14.583Z,101115.81
2018-01-21T10:05:45.019Z,101112.25
2018-01-21T10:08:16.082Z,101122.27
2018-01-21T10:10:47.081Z,101122.67
2018-01-21T10:13:18.956Z,101127.53
2018-01-21T10:15:50.849Z,101120.92
2018-01-21T10:18:22.568Z,101126.99
2018-01-21T10:20:53.511Z,101126.88
2018-01-21T10:23:24.092Z,101137.41
2018-01-21T10:28:32.482Z,101154.08
2018-01-21T10:31:03.134Z,101142.88
2018-01-21T10:33:34.633Z,101170.66
2018-01-21T10:36:06.274Z,101177.05
2018-01-21T10:38:38.168Z,101175.50
2018-01-21T10:41:09.231Z,101172.45
2018-01-21T10:43:39.796Z,101178.03
2018-01-21T10:46:14.723Z,101176.98
2018-01-21T10:48:50.033Z,101179.06
2018-01-21T10:51:20.689Z,101182.80
2018-01-21T10:53:51.711Z,101179.67
2018-01-21T10:56:24.142Z,101180.38
2018-01-21T10:58:54.719Z,101193.13
2018-01-21T11:01:25.285Z,101191.95
2018-01-21T11:03:56.841Z,101177.66
2018-01-21T11:06:28.784Z,101193.66
2018-01-21T11:09:02.367Z,101189.67
2018-01-21T11:11:34.320Z,101195.80
2018-01-21T11:14:05.452Z,101197.45
2018-01-21T11:16:37.394Z,101190.30
2018-01-21T11:19:09.977Z,101187.58
2018-01-21T11:21:40.786Z,101196.22
2018-01-21T11:24:11.361Z,101189.32
2018-01-21T11:26:43.782Z,101188.21
2018-01-21T11:29:14.763Z,101186.77
2018-01-21T11:31:47.722Z,101185.02
2018-01-21T11:34:20.271Z,101190.95
2018-01-21T11:36:52.816Z,101189.02
2018-01-21T11:39:25.274Z,101182.77
2018-01-21T11:41:58.148Z,101174.33
2018-01-21T11:44:32.095Z,101173.08
2018-01-21T11:47:10.740Z,101157.45
2018-01-21T11:49:39.735Z,101162.80
2018-01-21T11:52:10.769Z,101165.93
2018-01-21T11:54:43.119Z,101170.42
2018-01-21T11:57:16.761Z,101174.44
2018-01-21T11:59:49.116Z,101189.64
2018-01-21T12:02:28.105Z,101184.52
2018-01-21T12:05:05.667Z,101180.63
2018-01-21T12:07:38.062Z,101179.20
2018-01-21T12:10:11.791Z,101174.47
2018-01-21T12:12:45.196Z,101186.33
2018-01-21T12:15:20.620Z,101174.16
2018-01-21T12:17:55.556Z,101176.03
2018-01-21T12:20:27.427Z,101182.59
2018-01-21T12:23:01.154Z,101180.25
2018-01-21T12:25:35.590Z,101182.63
2018-01-21T12:28:07.695Z,101187.34
2018-01-21T12:30:40.493Z,101179.07
2018-01-21T12:33:13.174Z,101197.98
2018-01-21T12:35:47.726Z,101198.33
2018-01-21T12:38:20.756Z,101193.32
2018-01-21T12:40:53.071Z,101187.72
2018-01-21T12:43:26.073Z,101198.78
2018-01-21T12:46:03.338Z,101208.42
2018-01-21T12:48:37.608Z,101201.47
2018-01-21T12:51:11.420Z,101206.59
2018-01-21T12:53:44.287Z,101214.16
2018-01-21T12:56:20.234Z,101215.58
2018-01-21T12:58:53.995Z,101216.20
2018-01-21T13:01:29.802Z,101205.94
2018-01-21T13:04:05.951Z,101206.78
2018-01-21T13:06:39.915Z,101220.63
2018-01-21T13:09:11.831Z,101220.41
2018-01-21T13:11:44.024Z,101210.26
2018-01-21T13:14:16.514Z,101216.78
2018-01-21T13:16:50.098Z,101225.09
2018-01-21T13:19:25.325Z,101229.36
2018-01-21T13:22:00.171Z,101223.69
2018-01-21T13:24:33.253Z,101219.29
2018-01-21T13:27:06.453Z,101214.40
2018-01-21T13:29:40.025Z,101223.05
2018-01-21T13:32:11.888Z,101201.91
2018-01-21T13:34:46.525Z,101217.42
2018-01-21T13:40:03.767Z,101225.75
2018-01-21T13:42:36.883Z,101221.38
2018-01-21T13:45:10.425Z,101217.13
2018-01-21T13:47:46.257Z,101227.84
2018-01-21T13:50:21.298Z,101224.09
2018-01-21T13:52:56.495Z,101219.58
2018-01-21T13:58:10.193Z,101230.53
2018-01-21T14:00:50.481Z,101236.42
2018-01-21T14:03:26.783Z,101232.62
2018-01-21T14:06:00.950Z,101227.20
2018-01-21T14:08:38.201Z,101228.77
2018-01-21T14:11:11.009Z,101236.38
2018-01-21T14:13:46.041Z,101245.44
2018-01-21T14:16:19.705Z,101238.13
2018-01-21T14:18:53.749Z,101245.53
2018-01-21T14:21:27.379Z,101247.11
2018-01-21T14:23:59.852Z,101249.83
2018-01-21T14:26:31.386Z,101244.52
2018-01-21T14:29:04.380Z,101246.27
2018-01-21T14:31:40.545Z,101243.21
2018-01-21T14:34:14.867Z,101230.21
2018-01-21T14:36:50.586Z,101242.58
2018-01-21T14:39:30.837Z,101244.63
2018-01-21T14:42:02.627Z,101241.22
2018-01-21T14:44:35.600Z,101252.11
2018-01-21T14:47:11.268Z,101254.43
2018-01-21T14:49:45.636Z,101254.91
2018-01-21T14:52:19.676Z,101251.16
2018-01-21T14:54:53.637Z,101247.07
2018-01-21T14:57:28.114Z,101252.89
2018-01-21T15:00:04.710Z,101252.62
2018-01-21T15:02:39.645Z,101254.77
2018-01-21T15:05:17.481Z,101247.50
2018-01-21T15:07:52.249Z,101250.70
2018-01-21T15:10:28.824Z,101254.42
2018-01-21T15:13:00.975Z,101256.84
2018-01-21T15:15:32.838Z,101243.89
2018-01-21T15:18:05.938Z,101258.47
2018-01-21T15:20:39.826Z,101252.62
2018-01-21T15:23:13.951Z,101249.84
2018-01-21T15:25:47.291Z,101241.58
2018-01-21T15:28:24.487Z,101238.70
2018-01-21T15:30:59.909Z,101239.36
2018-01-21T15:33:34.828Z,101233.06
2018-01-21T15:36:10.553Z,101240.92
2018-01-21T15:38:42.866Z,101236.13
2018-01-21T15:41:14.010Z,101232.45
2018-01-21T15:43:46.788Z,101224.16
2018-01-21T15:46:37.147Z,101224.25
2018-01-21T15:49:11.373Z,101218.61
2018-01-21T15:51:46.219Z,101217.63
2018-01-21T15:54:18.067Z,101218.28
2018-01-21T15:56:50.391Z,101222.36
2018-01-21T15:59:23.063Z,101211.33
2018-01-21T16:01:58.708Z,101211.42
2018-01-21T16:04:30.417Z,101210.23
2018-01-21T16:07:06.656Z,101218.34
2018-01-21T16:09:39.632Z,101217.77
2018-01-21T16:12:10.956Z,101206.36
2018-01-21T16:14:43.511Z,101202.28
2018-01-21T16:17:15.557Z,101173.49
2018-01-21T16:19:49.234Z,101199.34
2018-01-21T16:22:27.353Z,101197.00
2018-01-21T16:24:58.607Z,101178.80
2018-01-21T16:27:29.825Z,101191.30
2018-01-21T16:30:01.004Z,101176.99
2018-01-21T16:32:36.250Z,101181.90
2018-01-21T16:35:10.855Z,101167.59
2018-01-21T16:37:50.243Z,101169.80
2018-01-21T16:40:20.916Z,101176.22
2018-01-21T16:42:51.400Z,101169.64
2018-01-21T16:45:24.433Z,101175.70
2018-01-21T16:47:55.367Z,101178.81
2018-01-21T16:50:27.226Z,101169.86
2018-01-21T16:52:59.926Z,101174.98
2018-01-21T16:55:32.796Z,101176.06
2018-01-21T16:58:04.181Z,101177.08
2018-01-21T17:00:36.266Z,101172.03
2018-01-21T17:03:08.505Z,101174.63
2018-01-21T17:05:39.837Z,101182.52
2018-01-21T17:08:10.837Z,101172.08
2018-01-21T17:10:41.560Z,101172.60
2018-01-21T17:13:12.214Z,101173.61
2018-01-21T17:15:43.468Z,101167.05
2018-01-21T17:18:14.537Z,101162.48
2018-01-21T17:20:47.280Z,101164.48
2018-01-21T17:23:18.103Z,101178.26
2018-01-21T17:25:50.646Z,101175.58
2018-01-21T17:31:00.839Z,101174.38
2018-01-21T17:33:31.627Z,101168.63
2018-01-21T17:36:02.509Z,101161.34
2018-01-21T17:38:33.081Z,101149.98
2018-01-21T17:41:04.410Z,101144.01
2018-01-21T17:43:36.071Z,101134.77
2018-01-21T17:46:10.224Z,101147.59
2018-01-21T17:48:42.273Z,101150.23
2018-01-21T17:51:12.790Z,101134.50
2018-01-21T17:53:43.734Z,101133.53
2018-01-21T17:56:15.162Z,101134.95
2018-01-21T17:58:46.620Z,101130.48
2018-01-21T18:01:26.440Z,101135.95
2018-01-21T18:03:58.219Z,101132.98
2018-01-21T18:06:32.902Z,101138.94
2018-01-21T18:09:11.682Z,101160.18
2018-01-21T18:11:46.812Z,101154.91
2018-01-21T18:14:20.565Z,101149.68
2018-01-21T18:16:53.108Z,101135.94
2018-01-21T18:19:30.904Z,101144.66
2018-01-21T18:22:02.231Z,101145.80
2018-01-21T18:24:36.151Z,101122.82
2018-01-21T18:27:07.326Z,101109.98
2018-01-21T18:29:38.778Z,101115.29
2018-01-21T18:32:11.773Z,101090.81
2018-01-21T18:34:42.432Z,101118.94
2018-01-21T18:37:13.350Z,101117.73
2018-01-21T18:39:44.282Z,101116.21
2018-01-21T18:42:16.491Z,101104.14
2018-01-21T18:44:49.311Z,101109.45
2018-01-21T18:47:21.454Z,101107.41
2018-01-21T18:49:56.216Z,101101.17
2018-01-21T18:52:28.953Z,101100.02
2018-01-21T18:55:00.277Z,101100.19
2018-01-21T18:57:32.518Z,101094.55
2018-01-21T19:03:01.387Z,101067.85
2018-01-21T19:05:33.340Z,101083.95
2018-01-21T19:08:05.560Z,101085.11
2018-01-21T19:10:37.790Z,101090.13
2018-01-21T19:13:13.281Z,101075.91
2018-01-21T19:15:44.821Z,101080.03
2018-01-21T19:18:15.583Z,101080.91
2018-01-21T19:20:47.106Z,101060.41
2018-01-21T19:23:17.748Z,101058.27
2018-01-21T19:25:49.044Z,101056.96
2018-01-21T19:28:23.748Z,101050.41
2018-01-21T19:30:55.810Z,101044.42
2018-01-21T19:33:28.898Z,101046.65
2018-01-21T19:36:02.838Z,101044.73
2018-01-21T19:38:37.916Z,101036.31
2018-01-21T19:41:12.974Z,101026.00
2018-01-21T19:43:44.554Z,101016.47
2018-01-21T19:46:16.425Z,101019.38
2018-01-21T19:48:48.557Z,101018.57
2018-01-21T19:51:19.128Z,101006.47
2018-01-21T19:53:50.030Z,100993.88
2018-01-21T19:56:21.372Z,100985.32
2018-01-21T20:01:31.254Z,100976.37
2018-01-21T20:04:03.635Z,100967.88
2018-01-21T20:06:35.138Z,100962.73
2018-01-21T20:09:07.266Z,100958.41
2018-01-21T20:11:38.577Z,100962.85
2018-01-21T20:14:10.103Z,100955.11
2018-01-21T20:16:40.956Z,100961.41
2018-01-21T20:19:12.442Z,100957.84
2018-01-21T20:21:44.577Z,100944.23
2018-01-21T20:24:15.488Z,100932.39
2018-01-21T20:26:46.408Z,100942.67
2018-01-21T20:29:16.897Z,100939.23
2018-01-21T20:31:48.431Z,100942.75
2018-01-21T20:34:20.163Z,100945.02
2018-01-21T20:36:56.920Z,100935.96
2018-01-21T20:39:27.701Z,100936.92
2018-01-21T20:41:59.481Z,100935.77
2018-01-21T20:44:30.091Z,100935.34
2018-01-21T20:47:01.819Z,100937.66
2018-01-21T20:49:33.290Z,100938.19
2018-01-21T20:52:09.101Z,100940.93
2018-01-21T20:54:40.932Z,100927.55
2018-01-21T20:57:11.581Z,100919.32
2018-01-21T20:59:42.995Z,100912.46
2018-01-21T21:02:14.561Z,100906.20
2018-01-21T21:04:44.967Z,100913.42
2018-01-21T21:07:16.117Z,100920.16
2018-01-21T21:09:47.850Z,100914.78
2018-01-21T21:12:18.579Z,100908.06
2018-01-21T21:14:49.215Z,100905.30
2018-01-21T21:17:20.005Z,100895.05
2018-01-21T21:19:52.496Z,100887.14
2018-01-21T21:22:24.514Z,100883.39
2018-01-21T21:24:54.901Z,100882.36
2018-01-21T21:27:25.623Z,100874.33
2018-01-21T21:29:57.246Z,100868.94
2018-01-21T21:32:28.162Z,100873.06
2018-01-21T21:34:58.765Z,100862.02
2018-01-21T21:37:30.091Z,100859.25
2018-01-21T21:40:00.791Z,100846.65
2018-01-21T21:42:31.917Z,100843.95
2018-01-21T21:45:05.847Z,100842.20
2018-01-21T21:47:37.327Z,100833.83
2018-01-21T21:50:08.232Z,100810.84
2018-01-21T21:52:39.329Z,100800.16
2018-01-21T21:55:09.839Z,100800.65
2018-01-21T21:57:42.600Z,100792.70
2018-01-21T22:00:19.642Z,100798.91
2018-01-21T22:02:50.279Z,100795.63
2018-01-21T22:05:21.508Z,100785.61
2018-01-21T22:07:53.189Z,100777.67
2018-01-21T22:10:24.569Z,100785.13
2018-01-21T22:12:55.306Z,100774.54
2018-01-21T22:15:26.595Z,100779.18
2018-01-21T22:17:57.168Z,100772.86
2018-01-21T22:20:27.761Z,100775.98
2018-01-21T22:22:58.583Z,100789.06
2018-01-21T22:25:29.092Z,100768.98
2018-01-21T22:27:59.815Z,100774.22
2018-01-21T22:30:31.873Z,100770.78
2018-01-21T22:33:02.229Z,100762.96
2018-01-21T22:35:33.007Z,100757.69
2018-01-21T22:38:04.296Z,100747.76
2018-01-21T22:40:34.959Z,100731.17
2018-01-21T22:43:05.520Z,100729.42
2018-01-21T22:45:36.403Z,100714.91
2018-01-21T22:48:07.426Z,100699.66
2018-01-21T22:50:37.877Z,100704.09
2018-01-21T22:53:08.489Z,100709.48
2018-01-21T22:55:39.813Z,100700.52
2018-01-21T22:58:10.584Z,100689.56
2018-01-21T23:00:41.548Z,100681.55
2018-01-21T23:03:12.054Z,100681.37
2018-01-21T23:05:42.490Z,100682.04
2018-01-21T23:08:13.196Z,100662.84
2018-01-21T23:10:43.828Z,100665.53
2018-01-21T23:13:15.783Z,100652.92
2018-01-21T23:15:46.551Z,100657.95
2018-01-21T23:18:16.958Z,100653.41
2018-01-21T23:21:00.045Z,100645.30
2018-01-21T23:23:30.332Z,100633.36
2018-01-21T23:26:01.189Z,100631.29
2018-01-21T23:28:33.202Z,100610.97
2018-01-21T23:31:03.476Z,100611.50
2018-01-21T23:33:34.195Z,100579.49
2018-01-21T23:36:04.523Z,100581.33
2018-01-21T23:38:34.751Z,100584.66
2018-01-21T23:41:05.352Z,100578.95
2018-01-21T23:43:36.603Z,100580.86
2018-01-21T23:46:07.148Z,100564.66
2018-01-21T23:48:38.046Z,100558.92
2018-01-21T23:51:08.382Z,100551.50
2018-01-21T23:53:39.703Z,100540.17
2018-01-21T23:56:10.284Z,100533.89
2018-01-21T23:58:40.800Z,100540.20
